Time;durP1;ratioP1;P1;durP2;ratioP2;P2;SDS_P1;SDS_P2;PMS_P1;PMS_P2;Temp;Humidity;BMP_temperature;BMP_pressure;BME280_temperature;BME280_humidity;BME280_pressure;Samples;Min_cycle;Max_cycle;Signal;HPM_P1;HPM_P2
2024/01/18 00:00:44;;;;;;;3.97;1.55;;;16.70;58.20;;;;;;6263734;22;20153;-85
2024/01/18 00:03:11;;;;;;;3.70;1.30;;;16.70;57.90;;;;;;6264577;22;20672;-85
2024/01/18 00:05:43;;;;;;;3.95;1.27;;;16.70;57.90;;;;;;6290325;22;20623;-86
2024/01/18 00:08:08;;;;;;;2.30;1.27;;;16.70;58.00;;;;;;6263163;22;20148;-85
2024/01/18 00:10:41;;;;;;;4.18;1.58;;;16.70;58.00;;;;;;6264060;22;20183;-85
2024/01/18 00:13:07;;;;;;;3.90;1.23;;;16.70;57.90;;;;;;6238213;22;20172;-85
2024/01/18 00:15:33;;;;;;;3.40;1.48;;;16.70;58.00;;;;;;6264178;22;20129;-86
2024/01/18 00:18:03;;;;;;;4.00;1.52;;;16.70;58.00;;;;;;6264382;22;20141;-85
2024/01/18 00:20:35;;;;;;;3.17;1.50;;;16.70;58.60;;;;;;6305595;22;20534;-83
2024/01/18 00:23:01;;;;;;;4.18;1.40;;;16.70;58.30;;;;;;6270534;22;20176;-85
2024/01/18 00:25:30;;;;;;;4.70;1.55;;;16.70;58.20;;;;;;6295143;22;20233;-84
2024/01/18 00:27:57;;;;;;;3.35;1.10;;;16.60;58.20;;;;;;6268186;22;20144;-85
2024/01/18 00:30:28;;;;;;;2.38;1.17;;;16.60;57.80;;;;;;6295350;22;20559;-84
2024/01/18 00:32:59;;;;;;;3.47;1.40;;;16.70;58.20;;;;;;6267569;22;20537;-84
2024/01/18 00:35:26;;;;;;;5.03;1.23;;;16.60;57.70;;;;;;6320259;22;20197;-84
2024/01/18 00:37:52;;;;;;;3.22;1.42;;;16.60;58.20;;;;;;6292824;22;20201;-84
2024/01/18 00:40:21;;;;;;;3.28;1.33;;;16.60;58.00;;;;;;6294292;22;20160;-84
2024/01/18 00:42:48;;;;;;;1.80;1.20;;;16.60;58.30;;;;;;6318685;22;20190;-84
2024/01/18 00:45:16;;;;;;;4.28;1.63;;;16.60;58.30;;;;;;6292539;22;20198;-84
2024/01/18 00:47:44;;;;;;;4.03;1.23;;;16.60;58.30;;;;;;6267175;22;20169;-84
2024/01/18 00:50:11;;;;;;;2.45;1.30;;;16.60;57.90;;;;;;6267705;22;20151;-84
2024/01/18 00:52:44;;;;;;;2.22;1.23;;;16.50;58.20;;;;;;6291705;22;20652;-85
2024/01/18 00:55:21;;;;;;;2.72;1.30;;;16.60;58.30;;;;;;6318539;22;20140;-84
2024/01/18 00:57:47;;;;;;;2.85;1.20;;;16.60;58.30;;;;;;6291248;22;20152;-85
2024/01/18 01:00:13;;;;;;;3.17;1.30;;;16.60;58.30;;;;;;6319023;22;20187;-85
2024/01/18 01:02:40;;;;;;;3.10;1.23;;;16.60;58.40;;;;;;6318716;22;20136;-85
2024/01/18 01:05:08;;;;;;;2.85;1.58;;;16.60;58.00;;;;;;6268292;22;20602;-84
2024/01/18 01:07:34;;;;;;;3.47;1.27;;;16.60;58.10;;;;;;6271130;22;20151;-84
2024/01/18 01:10:03;;;;;;;2.15;1.15;;;16.60;58.10;;;;;;6298408;22;20188;-85
2024/01/18 01:12:29;;;;;;;4.13;1.20;;;16.60;57.90;;;;;;6298722;22;20143;-84
2024/01/18 01:14:56;;;;;;;2.70;1.05;;;16.60;58.00;;;;;;6297906;22;20167;-84
2024/01/18 01:17:29;;;;;;;5.47;1.30;;;16.50;58.20;;;;;;6295284;22;20136;-85
2024/01/18 01:19:57;;;;;;;4.20;1.33;;;16.60;57.90;;;;;;6320485;22;20589;-85
2024/01/18 01:22:33;;;;;;;2.85;1.23;;;16.60;58.30;;;;;;6267235;22;20151;-84
2024/01/18 01:24:59;;;;;;;3.92;1.50;;;16.60;58.30;;;;;;6267899;22;20190;-84
2024/01/18 01:27:29;;;;;;;2.58;1.33;;;16.60;58.20;;;;;;6268521;22;20139;-85
2024/01/18 01:30:00;;;;;;;2.88;1.08;;;16.60;58.40;;;;;;6292577;22;20571;-85
2024/01/18 01:32:27;;;;;;;2.25;1.15;;;16.50;58.30;;;;;;6294264;22;20148;-85
2024/01/18 01:34:55;;;;;;;4.68;1.13;;;16.50;58.10;;;;;;6293866;22;20143;-85
2024/01/18 01:37:25;;;;;;;4.10;1.45;;;16.50;58.20;;;;;;6294752;22;20203;-85
2024/01/18 01:39:51;;;;;;;3.65;1.30;;;16.50;58.20;;;;;;6267416;22;20171;-84
2024/01/18 01:42:24;;;;;;;3.78;1.35;;;16.50;58.20;;;;;;6294477;22;20136;-84
2024/01/18 01:44:52;;;;;;;2.70;1.20;;;16.50;58.20;;;;;;6268319;22;20191;-84
2024/01/18 01:47:18;;;;;;;3.85;1.20;;;16.50;58.20;;;;;;6294675;22;20120;-85
2024/01/18 01:49:51;;;;;;;3.65;1.10;;;16.50;58.20;;;;;;6320769;22;20147;-84
2024/01/18 01:52:17;;;;;;;4.47;1.60;;;16.40;58.50;;;;;;6241077;22;20148;-85
2024/01/18 01:54:51;;;;;;;4.20;1.33;;;16.50;58.50;;;;;;6267936;22;20144;-84
2024/01/18 01:57:21;;;;;;;2.97;1.50;;;16.40;58.90;;;;;;6292204;22;20165;-84
2024/01/18 01:59:49;;;;;;;1.75;1.10;;;16.50;58.40;;;;;;6319363;22;20479;-85
2024/01/18 02:02:18;;;;;;;3.05;1.42;;;16.50;58.40;;;;;;6267703;22;20486;-85
2024/01/18 02:04:47;;;;;;;3.05;1.30;;;16.50;58.30;;;;;;6319364;22;20184;-84
2024/01/18 02:07:14;;;;;;;2.17;1.30;;;16.50;58.50;;;;;;6291923;22;20635;-84
2024/01/18 02:09:41;;;;;;;3.60;1.17;;;16.40;58.50;;;;;;6294383;22;20205;-84
2024/01/18 02:12:08;;;;;;;4.95;1.65;;;16.50;58.20;;;;;;6292586;22;20132;-83
2024/01/18 02:14:35;;;;;;;2.05;1.30;;;16.50;58.20;;;;;;6292844;22;20209;-83
2024/01/18 02:17:06;;;;;;;1.60;1.05;;;16.40;58.10;;;;;;6294034;22;20143;-84
2024/01/18 02:19:32;;;;;;;3.30;1.58;;;16.50;58.30;;;;;;6297953;22;20180;-83
2024/01/18 02:21:59;;;;;;;1.73;1.20;;;16.40;58.50;;;;;;6325778;22;20177;-84
2024/01/18 02:24:32;;;;;;;2.35;1.17;;;16.40;58.40;;;;;;6326415;22;20606;-84
2024/01/18 02:26:58;;;;;;;2.45;1.50;;;16.40;58.40;;;;;;6326778;22;20211;-84
2024/01/18 02:29:25;;;;;;;3.72;1.50;;;16.40;58.50;;;;;;6301417;22;20218;-84
2024/01/18 02:31:51;;;;;;;5.35;1.30;;;16.40;58.30;;;;;;6326476;22;20128;-84
2024/01/18 02:34:18;;;;;;;2.42;1.15;;;16.40;58.30;;;;;;6326874;22;20156;-83
2024/01/18 02:36:47;;;;;;;2.67;1.38;;;16.40;58.40;;;;;;6327485;22;20215;-83
2024/01/18 02:39:16;;;;;;;5.30;1.30;;;16.40;58.50;;;;;;6326834;22;20131;-83
2024/01/18 02:41:46;;;;;;;2.70;1.20;;;16.40;58.30;;;;;;6325164;22;20155;-85
2024/01/18 02:44:14;;;;;;;3.90;1.58;;;16.40;58.30;;;;;;6299616;22;20560;-85
2024/01/18 02:46:47;;;;;;;2.25;1.40;;;16.40;58.20;;;;;;6326596;22;20226;-85
2024/01/18 02:49:14;;;;;;;1.20;1.10;;;16.40;58.50;;;;;;6300694;22;20154;-85
2024/01/18 02:51:41;;;;;;;2.15;1.15;;;16.40;58.80;;;;;;6326871;22;20190;-85
2024/01/18 02:54:10;;;;;;;2.53;1.55;;;16.40;58.20;;;;;;6301136;22;20154;-84
2024/01/18 02:56:38;;;;;;;3.35;1.20;;;16.40;58.30;;;;;;6326496;22;20139;-84
2024/01/18 02:59:09;;;;;;;6.25;1.42;;;16.40;58.30;;;;;;6326725;22;20158;-85
2024/01/18 03:01:35;;;;;;;3.65;1.50;;;16.40;58.90;;;;;;6325480;22;20466;-84
2024/01/18 03:04:01;;;;;;;1.63;1.02;;;16.40;58.20;;;;;;6301656;22;20253;-84
2024/01/18 03:06:28;;;;;;;2.78;1.50;;;16.40;58.30;;;;;;6327499;22;20212;-84
2024/01/18 03:08:54;;;;;;;2.17;1.30;;;16.40;58.30;;;;;;6301912;22;20135;-84
2024/01/18 03:11:28;;;;;;;2.10;1.20;;;16.40;58.30;;;;;;6301055;22;20151;-84
2024/01/18 03:14:00;;;;;;;3.75;1.40;;;16.40;58.20;;;;;;6327565;22;20131;-83
2024/01/18 03:16:36;;;;;;;2.75;1.30;;;16.40;58.20;;;;;;6274723;22;20238;-84
2024/01/18 03:19:07;;;;;;;2.63;1.20;;;16.40;58.20;;;;;;6328005;22;20156;-83
2024/01/18 03:21:33;;;;;;;3.13;1.17;;;16.40;58.40;;;;;;6299255;22;20187;-84
2024/01/18 03:23:58;;;;;;;2.42;1.15;;;16.40;58.00;;;;;;6326953;22;20543;-84
2024/01/18 03:26:28;;;;;;;3.67;1.13;;;16.40;57.90;;;;;;6326377;22;20238;-83
2024/01/18 03:28:58;;;;;;;3.17;1.30;;;16.40;58.30;;;;;;6326978;22;20170;-83
2024/01/18 03:31:25;;;;;;;2.85;1.30;;;16.40;58.20;;;;;;6300274;22;20158;-85
2024/01/18 03:33:53;;;;;;;3.15;1.23;;;16.40;58.20;;;;;;6327283;22;20144;-84
2024/01/18 03:36:19;;;;;;;5.45;1.60;;;16.40;58.10;;;;;;6326757;22;20128;-84
2024/01/18 03:38:48;;;;;;;2.50;1.10;;;16.40;58.00;;;;;;6328047;22;20208;-85
2024/01/18 03:41:15;;;;;;;2.03;1.00;;;16.40;58.20;;;;;;6249260;22;20178;-84
2024/01/18 03:43:41;;;;;;;2.40;1.10;;;16.40;58.10;;;;;;6326215;22;20583;-84
2024/01/18 03:46:13;;;;;;;3.13;1.40;;;16.40;58.10;;;;;;6326753;22;20135;-84
2024/01/18 03:48:42;;;;;;;3.58;1.42;;;16.40;58.20;;;;;;6326543;22;20159;-84
2024/01/18 03:51:12;;;;;;;2.40;1.00;;;16.40;57.90;;;;;;6272538;22;20173;-83
2024/01/18 03:53:44;;;;;;;4.28;1.33;;;16.40;58.00;;;;;;6274575;22;20214;-84
2024/01/18 03:56:14;;;;;;;1.85;1.20;;;16.40;58.20;;;;;;6301255;22;20162;-84
2024/01/18 03:58:42;;;;;;;1.83;1.45;;;16.40;58.00;;;;;;6298922;22;20190;-84
2024/01/18 04:01:07;;;;;;;3.60;1.70;;;16.40;57.60;;;;;;6301260;22;20136;-84
2024/01/18 04:03:33;;;;;;;1.30;1.00;;;16.40;58.00;;;;;;6326413;22;20175;-84
2024/01/18 04:05:59;;;;;;;2.28;1.25;;;16.40;58.20;;;;;;6326304;22;20128;-85
2024/01/18 04:08:27;;;;;;;2.00;1.27;;;16.40;58.10;;;;;;6325782;22;20135;-84
2024/01/18 04:10:56;;;;;;;3.45;1.48;;;16.40;58.10;;;;;;6299822;22;20150;-85
2024/01/18 04:13:22;;;;;;;1.92;1.23;;;16.40;58.00;;;;;;6298725;22;20162;-84
2024/01/18 04:15:51;;;;;;;3.00;1.10;;;16.40;57.90;;;;;;6326556;22;20551;-85
2024/01/18 04:18:21;;;;;;;1.73;0.98;;;16.40;58.00;;;;;;6327370;22;20586;-84
2024/01/18 04:20:52;;;;;;;3.20;1.17;;;16.30;58.20;;;;;;6353757;22;20193;-85
2024/01/18 04:23:21;;;;;;;2.67;1.17;;;16.30;58.00;;;;;;6327196;22;20506;-84
2024/01/18 04:25:52;;;;;;;1.83;1.30;;;16.40;58.20;;;;;;6327053;22;20578;-85
2024/01/18 04:28:28;;;;;;;3.55;1.13;;;16.30;58.00;;;;;;6247671;22;20147;-84
2024/01/18 04:30:55;;;;;;;2.97;1.45;;;16.30;58.10;;;;;;6326217;22;20200;-84
2024/01/18 04:33:22;;;;;;;1.98;1.02;;;16.40;58.10;;;;;;6326229;22;20132;-84
2024/01/18 04:35:54;;;;;;;1.80;1.05;;;16.30;57.90;;;;;;6325510;22;20135;-85
2024/01/18 04:38:25;;;;;;;3.60;1.08;;;16.30;58.30;;;;;;6298004;22;20489;-84
2024/01/18 04:40:54;;;;;;;2.67;1.70;;;16.30;58.10;;;;;;6272458;22;20211;-83
2024/01/18 04:43:20;;;;;;;4.78;1.30;;;16.30;58.20;;;;;;6325045;22;20194;-84
2024/01/18 04:45:52;;;;;;;3.08;1.33;;;16.30;58.10;;;;;;6324745;22;20139;-84
2024/01/18 04:48:19;;;;;;;2.55;1.10;;;16.30;58.20;;;;;;6325110;22;20138;-84
2024/01/18 04:50:46;;;;;;;2.72;1.35;;;16.30;58.20;;;;;;6325025;22;20188;-83
2024/01/18 04:53:13;;;;;;;2.67;1.10;;;16.30;58.20;;;;;;6323979;22;20131;-84
2024/01/18 04:55:43;;;;;;;1.77;1.17;;;16.30;58.20;;;;;;6324814;22;20218;-84
2024/01/18 04:58:17;;;;;;;3.38;1.00;;;16.30;58.10;;;;;;6273167;22;20167;-83
2024/01/18 05:00:52;;;;;;;1.73;1.20;;;16.30;58.10;;;;;;6271833;22;20202;-84
2024/01/18 05:03:19;;;;;;;2.55;1.45;;;16.30;58.30;;;;;;6324543;22;20194;-83
2024/01/18 05:05:47;;;;;;;4.35;1.33;;;16.30;58.20;;;;;;6298741;22;20199;-84
2024/01/18 05:08:15;;;;;;;1.98;1.17;;;16.30;58.20;;;;;;6324802;22;20233;-84
2024/01/18 05:10:40;;;;;;;2.80;1.10;;;16.30;58.20;;;;;;6299421;22;20139;-84
2024/01/18 05:13:10;;;;;;;1.33;1.20;;;16.30;58.10;;;;;;6323822;22;20153;-83
2024/01/18 05:15:36;;;;;;;2.65;1.10;;;16.20;58.00;;;;;;6324224;22;20210;-83
2024/01/18 05:18:06;;;;;;;2.75;1.20;;;16.30;57.80;;;;;;6297769;22;20136;-84
2024/01/18 05:23:09;;;;;;;1.73;1.20;;;16.30;58.00;;;;;;6323332;22;20198;-83
2024/01/18 05:25:39;;;;;;;2.58;1.25;;;16.30;58.00;;;;;;6273597;22;20176;-84
2024/01/18 05:28:14;;;;;;;3.10;1.20;;;16.30;58.10;;;;;;6246817;22;20154;-83
2024/01/18 05:30:41;;;;;;;2.35;1.42;;;16.30;58.00;;;;;;6246486;22;20159;-84
2024/01/18 05:33:22;;;;;;;1.10;0.90;;;16.30;58.20;;;;;;6299144;22;20147;-84
2024/01/18 05:35:49;;;;;;;2.42;1.08;;;16.30;58.20;;;;;;6246095;22;20147;-85
2024/01/18 05:38:15;;;;;;;1.50;1.20;;;16.30;57.90;;;;;;6298643;22;20124;-85
2024/01/18 05:40:41;;;;;;;1.48;1.13;;;16.30;58.10;;;;;;6272986;22;20154;-84
2024/01/18 05:43:07;;;;;;;2.65;1.13;;;16.30;57.80;;;;;;6274290;22;20175;-83
2024/01/18 05:45:35;;;;;;;3.45;1.20;;;16.30;57.80;;;;;;6272781;22;20139;-85
2024/01/18 05:48:01;;;;;;;2.25;1.15;;;16.30;57.80;;;;;;6272960;22;20154;-84
2024/01/18 05:50:32;;;;;;;3.20;1.08;;;16.30;57.80;;;;;;6272419;22;20151;-83
2024/01/18 05:52:59;;;;;;;2.40;1.23;;;16.30;58.00;;;;;;6273733;22;20222;-84
2024/01/18 05:55:25;;;;;;;2.78;1.35;;;16.30;58.50;;;;;;6273354;22;20212;-84
2024/01/18 05:57:50;;;;;;;4.32;1.33;;;16.30;58.00;;;;;;6298709;22;20131;-84
2024/01/18 06:00:18;;;;;;;2.80;1.30;;;16.30;57.80;;;;;;6326617;22;20139;-84
2024/01/18 06:02:50;;;;;;;1.17;0.90;;;16.30;58.00;;;;;;6275610;22;20221;-84
2024/01/18 06:05:16;;;;;;;2.47;1.20;;;16.30;57.80;;;;;;6326286;22;20141;-85
2024/01/18 06:07:46;;;;;;;1.70;1.05;;;16.30;58.00;;;;;;6326168;22;20571;-84
2024/01/18 06:10:14;;;;;;;3.95;1.13;;;16.30;57.80;;;;;;6326139;22;20221;-84
2024/01/18 06:12:39;;;;;;;1.80;1.10;;;16.20;58.30;;;;;;6275053;22;20574;-84
2024/01/18 06:15:06;;;;;;;2.70;1.20;;;16.30;57.80;;;;;;6300756;22;20186;-84
2024/01/18 06:17:35;;;;;;;2.15;1.00;;;16.30;58.10;;;;;;6300651;22;20143;-84
2024/01/18 06:20:07;;;;;;;2.88;1.60;;;16.20;58.00;;;;;;6275397;22;20196;-84
2024/01/18 06:22:33;;;;;;;1.60;1.30;;;16.30;58.00;;;;;;6238531;22;20196;-84
2024/01/18 06:25:01;;;;;;;2.35;1.17;;;16.20;57.80;;;;;;6289107;22;20251;-84
2024/01/18 06:27:31;;;;;;;1.50;1.00;;;16.20;57.90;;;;;;6315228;22;20145;-84
2024/01/18 06:30:03;;;;;;;3.17;1.13;;;16.20;57.90;;;;;;6315391;22;20164;-84
2024/01/18 06:32:31;;;;;;;2.10;1.05;;;16.20;57.90;;;;;;6262223;22;20152;-84
2024/01/18 06:34:59;;;;;;;2.25;1.30;;;16.20;58.00;;;;;;6314538;22;20227;-84
2024/01/18 06:37:27;;;;;;;1.48;1.10;;;16.20;58.20;;;;;;6258053;23;20312;-84
2024/01/18 06:39:57;;;;;;;2.97;1.27;;;16.40;57.20;;;;;;6233896;23;20145;-84
2024/01/18 06:42:27;;;;;;;1.63;1.10;;;16.40;57.30;;;;;;6207380;23;20146;-84
2024/01/18 06:45:05;;;;;;;2.22;1.10;;;16.50;57.10;;;;;;6233496;23;20169;-84
2024/01/18 06:47:36;;;;;;;2.63;1.30;;;16.60;57.00;;;;;;6235021;23;20146;-84
2024/01/18 06:50:09;;;;;;;1.92;1.20;;;16.50;57.00;;;;;;6208473;23;20153;-84
2024/01/18 06:52:42;;;;;;;2.95;1.27;;;16.50;57.20;;;;;;6233744;23;20179;-84
2024/01/18 06:55:13;;;;;;;0.82;0.73;;;16.50;56.90;;;;;;6208515;23;20157;-84
2024/01/18 06:57:39;;;;;;;2.65;1.08;;;16.60;56.70;;;;;;6206936;23;20172;-84
2024/01/18 07:00:10;;;;;;;2.25;1.05;;;16.60;56.80;;;;;;6200761;23;20130;-85
2024/01/18 07:52:25;;;;;;;2.03;1.17;;;16.70;55.60;;;;;;6321390;22;20215;-85
2024/01/18 07:55:01;;;;;;;3.13;1.10;;;16.70;55.40;;;;;;6283588;22;20154;-85
2024/01/18 07:57:34;;;;;;;2.42;1.17;;;16.80;54.50;;;;;;6286355;22;20143;-85
2024/01/18 08:00:11;;;;;;;1.77;0.90;;;16.80;55.00;;;;;;6258745;22;20215;-85
2024/01/18 08:02:39;;;;;;;1.48;0.90;;;16.80;54.90;;;;;;6232728;22;20236;-85
2024/01/18 08:05:06;;;;;;;2.10;1.13;;;16.80;54.40;;;;;;6257532;23;20157;-84
2024/01/18 08:07:31;;;;;;;3.15;1.13;;;16.80;54.10;;;;;;6227382;23;20154;-85
2024/01/18 08:09:59;;;;;;;1.17;0.90;;;16.80;54.40;;;;;;6202958;23;20150;-86
2024/01/18 08:12:40;;;;;;;1.02;0.75;;;16.80;54.00;;;;;;6204570;23;20146;-85
2024/01/18 08:15:22;;;;;;;0.90;0.90;;;16.90;53.40;;;;;;6183238;23;20244;-84
2024/01/18 08:17:53;;;;;;;1.00;0.90;;;16.90;53.70;;;;;;6144437;23;20175;-86
2024/01/18 08:20:29;;;;;;;1.58;0.90;;;16.90;53.70;;;;;;6121218;23;20175;-85
2024/01/18 08:23:00;;;;;;;0.80;0.70;;;16.80;53.70;;;;;;6118733;23;20175;-85
2024/01/18 08:25:31;;;;;;;1.35;0.90;;;16.90;54.00;;;;;;6116414;23;20174;-85
2024/01/18 08:27:59;;;;;;;1.83;0.90;;;16.90;53.70;;;;;;6064122;23;20152;-85
2024/01/18 08:30:30;;;;;;;1.73;1.02;;;16.80;53.80;;;;;;6067836;23;20148;-87
2024/01/18 09:14:24;;;;;;;1.75;0.90;;;16.80;54.40;;;;;;6296127;22;20262;-83
2024/01/18 09:25:01;;;;;;;;;;;;;;;;;;;;;
2024/01/18 09:27:42;;;;;;;1.63;0.88;;;16.70;54.80;;;;;;6259362;22;20155;-84
2024/01/18 09:30:09;;;;;;;1.70;1.00;;;16.70;54.60;;;;;;6238511;23;20180;-84
2024/01/18 09:32:48;;;;;;;1.40;0.90;;;16.70;54.60;;;;;;6181720;23;20138;-85
2024/01/18 09:35:40;;;;;;;1.75;0.93;;;16.70;55.20;;;;;;6237112;22;20184;-83
2024/01/18 09:38:12;;;;;;;1.27;1.00;;;16.60;55.50;;;;;;6243607;23;20153;-84
2024/01/18 09:40:40;;;;;;;1.42;0.90;;;16.60;55.60;;;;;;6186390;23;20150;-84
2024/01/18 09:43:08;;;;;;;2.05;1.00;;;16.60;55.80;;;;;;6205311;23;20256;-84
2024/01/18 09:45:35;;;;;;;1.88;1.00;;;16.60;55.60;;;;;;6204421;23;20133;-83
2024/01/18 09:48:03;;;;;;;2.20;0.88;;;16.60;55.80;;;;;;6229348;23;20141;-84
2024/01/18 09:50:32;;;;;;;2.80;0.90;;;16.60;55.50;;;;;;6253637;23;20569;-83
2024/01/18 09:52:57;;;;;;;1.52;0.80;;;16.70;55.10;;;;;;6225122;23;20191;-83
2024/01/18 09:55:24;;;;;;;0.82;0.70;;;16.70;55.00;;;;;;6201082;23;20224;-82
2024/01/18 09:57:53;;;;;;;2.15;0.82;;;16.70;54.40;;;;;;6220101;23;20150;-82
2024/01/18 10:00:19;;;;;;;1.95;0.82;;;16.70;55.00;;;;;;6195201;23;20138;-85
2024/01/18 10:02:56;;;;;;;1.38;0.88;;;16.80;53.90;;;;;;6224731;23;20198;-84
2024/01/18 10:05:25;;;;;;;2.17;0.90;;;16.80;54.30;;;;;;6200663;23;20675;-82
2024/01/18 10:07:53;;;;;;;1.58;0.80;;;17.00;53.90;;;;;;6222491;23;20142;-83
2024/01/18 10:10:19;;;;;;;2.42;0.90;;;16.90;54.40;;;;;;6224604;23;20130;-83
2024/01/18 10:12:47;;;;;;;0.85;0.70;;;17.00;54.40;;;;;;6225175;23;20206;-84
2024/01/18 10:15:32;;;;;;;0.93;0.73;;;17.00;55.40;;;;;;6227805;23;20503;-82
2024/01/18 10:18:04;;;;;;;1.15;0.75;;;16.90;54.40;;;;;;6229320;23;20458;-83
2024/01/18 10:20:34;;;;;;;1.02;0.82;;;16.90;54.00;;;;;;6204443;23;20152;-83
2024/01/18 10:23:03;;;;;;;2.03;0.90;;;17.00;53.90;;;;;;6203163;23;20150;-82
2024/01/18 10:25:32;;;;;;;2.85;0.98;;;16.90;54.10;;;;;;6227228;23;20141;-83
2024/01/18 10:28:02;;;;;;;1.13;0.90;;;17.00;53.90;;;;;;6225087;23;20190;-84
2024/01/18 10:30:33;;;;;;;2.47;0.77;;;17.00;54.30;;;;;;6198879;23;20427;-83
2024/01/18 10:33:00;;;;;;;1.20;0.93;;;17.00;54.00;;;;;;6200945;23;20597;-84
2024/01/18 10:35:28;;;;;;;2.15;1.00;;;16.90;54.20;;;;;;6227181;23;20232;-83
2024/01/18 10:38:07;;;;;;;1.45;0.70;;;16.90;54.30;;;;;;6198153;23;20157;-83
2024/01/18 10:40:36;;;;;;;1.58;1.00;;;17.00;53.40;;;;;;6222702;23;20154;-84
2024/01/18 10:43:08;;;;;;;1.05;0.82;;;17.00;53.90;;;;;;6200103;23;20144;-84
2024/01/18 10:45:36;;;;;;;1.77;0.82;;;17.00;54.90;;;;;;6203302;23;20138;-83
2024/01/18 10:48:04;;;;;;;1.55;0.85;;;17.00;54.20;;;;;;6205319;23;20158;-84
2024/01/18 10:50:35;;;;;;;0.77;0.73;;;17.00;53.90;;;;;;6204434;23;20149;-83
2024/01/18 10:53:00;;;;;;;1.15;0.80;;;17.00;54.20;;;;;;6200843;23;20200;-83
2024/01/18 10:55:26;;;;;;;1.00;0.80;;;17.00;53.80;;;;;;6229177;23;20134;-83
2024/01/18 10:57:52;;;;;;;1.25;0.95;;;17.00;53.90;;;;;;6199406;23;20130;-82
2024/01/18 11:00:19;;;;;;;1.65;0.90;;;17.00;53.50;;;;;;6218946;23;20594;-83
2024/01/18 11:02:45;;;;;;;1.60;0.70;;;17.00;53.70;;;;;;6192164;23;20138;-82
2024/01/18 11:05:14;;;;;;;0.98;0.85;;;17.00;53.40;;;;;;6191260;23;20165;-82
2024/01/18 11:07:40;;;;;;;0.80;0.70;;;17.00;53.80;;;;;;6192290;23;20127;-82
2024/01/18 11:10:11;;;;;;;1.40;0.90;;;17.00;53.60;;;;;;6193703;23;20142;-83
2024/01/18 11:12:40;;;;;;;1.63;0.90;;;17.00;53.70;;;;;;6191823;23;20123;-82
2024/01/18 11:15:24;;;;;;;1.30;0.90;;;17.00;54.10;;;;;;6220485;23;20207;-82
2024/01/18 11:17:51;;;;;;;1.08;0.77;;;17.00;54.10;;;;;;6223721;23;20134;-84
2024/01/18 11:20:20;;;;;;;0.70;0.60;;;17.10;53.80;;;;;;6197493;23;20134;-84
2024/01/18 11:22:46;;;;;;;1.23;0.73;;;17.00;53.50;;;;;;6171512;23;20150;-81
2024/01/18 11:25:17;;;;;;;1.15;0.82;;;17.00;53.70;;;;;;6190453;23;20481;-83
2024/01/18 11:27:43;;;;;;;0.90;0.60;;;17.10;53.30;;;;;;6219876;23;20161;-82
2024/01/18 11:30:12;;;;;;;1.10;0.82;;;17.10;53.50;;;;;;6216654;23;20131;-83
2024/01/18 11:32:45;;;;;;;1.60;0.90;;;17.10;52.90;;;;;;6195218;23;20146;-82
2024/01/18 11:35:20;;;;;;;1.95;0.90;;;17.10;52.60;;;;;;6195505;23;20276;-83
2024/01/18 11:37:46;;;;;;;1.52;0.80;;;17.10;53.20;;;;;;6193149;23;20146;-81
2024/01/18 11:40:12;;;;;;;1.88;0.95;;;17.10;52.90;;;;;;6217910;23;20161;-81
2024/01/18 11:42:43;;;;;;;2.10;0.90;;;17.10;52.80;;;;;;6220377;23;20141;-83
2024/01/18 11:45:22;;;;;;;2.15;0.82;;;17.10;53.60;;;;;;6193137;23;20507;-81
2024/01/18 11:47:50;;;;;;;1.55;0.73;;;17.00;53.40;;;;;;6224089;23;20169;-81
2024/01/18 11:50:17;;;;;;;2.03;1.00;;;17.10;53.70;;;;;;6220813;23;20138;-78
2024/01/18 11:52:46;;;;;;;0.70;0.60;;;17.10;53.20;;;;;;6197008;23;20131;-81
2024/01/18 11:55:17;;;;;;;0.70;0.70;;;17.10;53.30;;;;;;6220357;23;20138;-82
2024/01/18 11:57:44;;;;;;;1.33;0.50;;;17.00;53.70;;;;;;6167362;23;20206;-82
2024/01/18 12:00:14;;;;;;;0.90;0.70;;;17.10;53.90;;;;;;6216097;23;20532;-85
2024/01/18 12:03:35;;;;;;;1.10;0.80;;;17.10;53.20;;;;;;6127510;23;20176;-86
2024/01/18 12:05:40;;;;;;;2.40;0.82;;;17.10;53.10;;;;;;6128008;23;20233;-81
2024/01/18 12:08:07;;;;;;;1.75;0.55;;;17.10;53.90;;;;;;6110252;23;20642;-82
2024/01/18 12:10:41;;;;;;;1.95;0.60;;;17.10;53.00;;;;;;6085995;23;20622;-80
2024/01/18 12:13:13;;;;;;;1.48;0.80;;;17.10;52.30;;;;;;6083828;23;20159;-81
2024/01/18 12:15:41;;;;;;;1.20;0.70;;;17.20;52.50;;;;;;6103944;23;20247;-81
2024/01/18 12:18:07;;;;;;;0.75;0.50;;;17.20;52.30;;;;;;6107036;23;20143;-79
2024/01/18 12:20:34;;;;;;;3.08;0.70;;;17.20;52.00;;;;;;6107141;23;20541;-81
2024/01/18 12:23:01;;;;;;;1.15;0.90;;;17.10;52.10;;;;;;6132628;23;20235;-81
2024/01/18 12:25:32;;;;;;;1.08;0.70;;;17.20;53.10;;;;;;6079357;23;20160;-82
2024/01/18 12:27:58;;;;;;;2.75;0.88;;;17.10;52.50;;;;;;6078227;23;20149;-80
2024/01/18 12:30:24;;;;;;;1.58;0.75;;;17.10;52.60;;;;;;6076425;23;20485;-82
2024/01/18 12:32:55;;;;;;;0.80;0.80;;;17.10;52.90;;;;;;6125023;23;20155;-81
2024/01/18 12:35:23;;;;;;;0.63;0.50;;;17.20;52.60;;;;;;6140769;23;20226;-80
2024/01/18 12:37:51;;;;;;;0.98;0.85;;;17.20;52.30;;;;;;6170668;23;20728;-82
2024/01/18 12:40:20;;;;;;;0.93;0.70;;;17.20;52.20;;;;;;6142209;23;20154;-85
2024/01/18 12:42:53;;;;;;;1.25;0.70;;;17.10;52.90;;;;;;6164515;23;20134;-84
2024/01/18 12:45:41;;;;;;;2.53;0.85;;;17.20;52.50;;;;;;6164523;23;20200;-78
2024/01/18 12:48:08;;;;;;;1.10;0.70;;;17.20;52.80;;;;;;6191089;23;20151;-81
2024/01/18 12:50:37;;;;;;;1.25;0.63;;;17.10;52.60;;;;;;6141254;23;20461;-81
2024/01/18 12:53:04;;;;;;;0.60;0.60;;;17.20;52.30;;;;;;6140855;23;20147;-80
2024/01/18 12:55:33;;;;;;;0.85;0.77;;;17.30;52.00;;;;;;6146066;23;20594;-77
2024/01/18 12:58:04;;;;;;;0.60;0.60;;;17.20;52.70;;;;;;6203752;23;20165;-79
2024/01/18 13:00:36;;;;;;;1.20;0.57;;;17.20;52.20;;;;;;6205159;23;20146;-78
2024/01/18 13:03:32;;;;;;;0.80;0.60;;;17.20;52.70;;;;;;6203079;23;20158;-79
2024/01/18 13:06:04;;;;;;;1.90;0.68;;;17.20;52.50;;;;;;6204485;23;20188;-81
2024/01/18 13:08:31;;;;;;;0.75;0.60;;;17.20;51.90;;;;;;6228665;23;20165;-79
2024/01/18 13:10:59;;;;;;;1.02;0.70;;;17.30;52.10;;;;;;6175085;23;20153;-80
2024/01/18 13:13:25;;;;;;;1.75;0.80;;;17.30;52.00;;;;;;6201719;23;20152;-81
2024/01/18 13:15:55;;;;;;;0.68;0.68;;;17.30;51.60;;;;;;6178161;23;20276;-80
2024/01/18 13:18:20;;;;;;;0.93;0.70;;;17.30;52.10;;;;;;6205485;23;20200;-78
2024/01/18 13:20:57;;;;;;;0.95;0.75;;;17.20;52.70;;;;;;6204811;23;20609;-80
2024/01/18 13:23:29;;;;;;;1.10;0.70;;;17.20;53.10;;;;;;6163108;23;20183;-78
2024/01/18 13:25:59;;;;;;;1.75;0.80;;;17.30;52.80;;;;;;6168136;23;20143;-79
2024/01/18 13:28:32;;;;;;;2.50;1.00;;;17.30;53.30;;;;;;6168467;23;20210;-80
2024/01/18 13:30:59;;;;;;;2.72;0.73;;;17.30;52.60;;;;;;6119339;23;20179;-82
2024/01/18 13:33:38;;;;;;;1.85;0.75;;;17.40;52.90;;;;;;6143923;23;20186;-82
2024/01/18 13:36:10;;;;;;;0.82;0.80;;;17.30;53.10;;;;;;6083867;23;20197;-82
2024/01/18 13:38:55;;;;;;;1.00;0.73;;;17.40;52.40;;;;;;6083226;23;20260;-81
2024/01/18 13:41:27;;;;;;;2.22;0.68;;;17.40;52.40;;;;;;6049776;23;20158;-80
2024/01/18 13:43:59;;;;;;;4.65;0.65;;;17.40;52.40;;;;;;6001158;23;20198;-84
2024/01/18 13:46:41;;;;;;;1.50;0.73;;;17.40;51.80;;;;;;6021535;23;20150;-84
2024/01/18 13:49:11;;;;;;;4.43;0.93;;;17.40;50.90;;;;;;6048580;23;20157;-79
2024/01/18 13:51:45;;;;;;;1.90;0.90;;;17.50;50.80;;;;;;6001745;23;20246;-80
2024/01/18 13:54:17;;;;;;;2.10;1.05;;;17.40;51.70;;;;;;5991848;23;20189;-81
2024/01/18 13:56:55;;;;;;;4.80;1.17;;;17.50;52.40;;;;;;5971053;23;20155;-84
2024/01/18 13:59:34;;;;;;;1.52;0.80;;;17.40;51.70;;;;;;5974331;23;20210;-81
2024/01/18 14:02:20;;;;;;;2.75;0.95;;;17.40;52.40;;;;;;5993905;23;20155;-82
2024/01/18 14:04:47;;;;;;;2.63;0.80;;;17.40;51.80;;;;;;5952879;23;20306;-81
2024/01/18 14:07:13;;;;;;;2.97;1.10;;;17.40;51.50;;;;;;6093207;23;20152;-81
2024/01/18 14:09:46;;;;;;;2.85;0.80;;;17.50;52.00;;;;;;6080283;23;20133;-84
2024/01/18 14:12:11;;;;;;;4.38;0.70;;;17.50;52.30;;;;;;6105276;23;20161;-80
2024/01/18 14:14:45;;;;;;;0.70;0.70;;;17.50;52.10;;;;;;6082682;23;20160;-83
2024/01/18 14:17:16;;;;;;;0.98;0.70;;;17.60;51.10;;;;;;6110152;23;20604;-82
2024/01/18 14:19:43;;;;;;;1.13;0.65;;;17.50;52.40;;;;;;6107208;23;20541;-82
2024/01/18 14:22:09;;;;;;;1.27;0.95;;;17.50;52.10;;;;;;6108200;23;20204;-82
2024/01/18 14:24:43;;;;;;;1.23;0.80;;;17.50;52.10;;;;;;6081017;23;20181;-81
2024/01/18 14:27:16;;;;;;;2.45;1.02;;;17.50;52.30;;;;;;6116415;23;20197;-82
2024/01/18 14:29:46;;;;;;;0.90;0.80;;;17.50;52.00;;;;;;6086823;23;20153;-83
2024/01/18 14:32:18;;;;;;;1.10;0.63;;;17.50;51.90;;;;;;6117443;23;20167;-82
2024/01/18 14:34:46;;;;;;;2.25;1.02;;;17.50;52.90;;;;;;6094002;23;20185;-81
2024/01/18 14:37:12;;;;;;;1.85;0.73;;;17.50;52.60;;;;;;6144574;23;20146;-79
2024/01/18 14:39:41;;;;;;;3.42;0.70;;;17.50;52.30;;;;;;6145577;23;20139;-83
2024/01/18 14:42:07;;;;;;;3.63;0.90;;;17.40;52.50;;;;;;6147361;23;20154;-79